Time;durP1;ratioP1;P1;durP2;ratioP2;P2;SDS_P1;SDS_P2;PMS_P1;PMS_P2;Temp;Humidity;BMP_temperature;BMP_pressure;BME280_temperature;BME280_humidity;BME280_pressure;Samples;Min_cycle;Max_cycle;Signal;HPM_P1;HPM_P2
2024/02/17 00:01:30;;;;;;;5.83;5.17;;;15.40;99.90;;;;;;5031658;28;20210;-61
2024/02/17 00:03:58;;;;;;;6.80;5.95;;;15.40;99.90;;;;;;5031697;28;20313;-61
2024/02/17 00:06:25;;;;;;;7.45;5.53;;;15.40;99.90;;;;;;5031730;28;20229;-61
2024/02/17 00:08:52;;;;;;;6.63;5.28;;;15.50;99.90;;;;;;5031657;28;20595;-62
2024/02/17 00:11:18;;;;;;;6.65;5.53;;;15.50;99.90;;;;;;5031371;28;20663;-61
2024/02/17 00:13:45;;;;;;;6.13;4.60;;;15.50;99.90;;;;;;5031971;28;20217;-61
2024/02/17 00:16:12;;;;;;;6.70;4.25;;;15.50;99.90;;;;;;5031642;28;20285;-62
2024/02/17 00:18:38;;;;;;;4.65;3.65;;;15.50;99.90;;;;;;5031609;28;20233;-61
2024/02/17 00:21:07;;;;;;;4.65;3.55;;;15.40;99.90;;;;;;5031235;28;20668;-61
2024/02/17 00:23:33;;;;;;;5.60;3.72;;;15.40;99.90;;;;;;5031463;28;20291;-61
2024/02/17 00:26:00;;;;;;;5.88;3.60;;;15.30;99.90;;;;;;5031528;28;20222;-61
2024/02/17 00:28:28;;;;;;;4.03;3.53;;;15.30;99.90;;;;;;5031776;28;20205;-61
2024/02/17 00:30:54;;;;;;;4.82;3.00;;;15.30;99.90;;;;;;5031355;28;20206;-61
2024/02/17 00:33:21;;;;;;;5.43;3.08;;;15.30;99.90;;;;;;5031407;28;20863;-61
2024/02/17 00:35:48;;;;;;;4.03;3.00;;;15.30;99.90;;;;;;5031464;28;20501;-61
2024/02/17 00:38:16;;;;;;;3.45;2.90;;;15.30;99.90;;;;;;5031303;28;20672;-61
2024/02/17 00:40:45;;;;;;;4.00;2.75;;;15.40;99.90;;;;;;5031438;28;20293;-61
2024/02/17 00:43:12;;;;;;;5.20;3.08;;;15.30;99.90;;;;;;5031278;28;20210;-61
2024/02/17 00:45:38;;;;;;;5.05;2.30;;;15.30;99.90;;;;;;5031303;28;20206;-61
2024/02/17 00:48:06;;;;;;;4.65;2.78;;;15.30;99.90;;;;;;5031306;28;20217;-61
2024/02/17 00:50:33;;;;;;;4.13;2.33;;;15.20;99.90;;;;;;5031052;28;20676;-61
2024/02/17 00:52:59;;;;;;;3.63;2.70;;;15.20;99.90;;;;;;5031489;28;20221;-61
2024/02/17 00:55:27;;;;;;;4.67;2.63;;;15.30;99.90;;;;;;5031518;28;20292;-61
2024/02/17 00:57:54;;;;;;;6.65;2.75;;;15.20;99.90;;;;;;5031536;28;20620;-62
2024/02/17 01:00:21;;;;;;;3.97;2.95;;;15.20;99.90;;;;;;5030938;28;20232;-61
2024/02/17 01:02:48;;;;;;;4.43;3.40;;;15.20;99.90;;;;;;5031164;28;20241;-61
2024/02/17 01:05:14;;;;;;;6.10;3.40;;;15.20;99.90;;;;;;5030880;28;20233;-61
2024/02/17 01:07:41;;;;;;;5.50;3.70;;;15.10;99.90;;;;;;5031311;28;20222;-62
2024/02/17 01:10:08;;;;;;;4.77;3.73;;;15.10;99.90;;;;;;5030866;28;20213;-61
2024/02/17 01:12:36;;;;;;;6.75;3.65;;;15.10;99.90;;;;;;5031198;28;20214;-62
2024/02/17 01:15:03;;;;;;;5.53;3.40;;;15.10;99.90;;;;;;5031054;28;20257;-62
2024/02/17 01:17:30;;;;;;;5.85;3.17;;;15.10;99.90;;;;;;5031134;28;20289;-61
2024/02/17 01:19:56;;;;;;;5.38;3.53;;;15.10;99.90;;;;;;5034324;28;20694;-61
2024/02/17 01:22:24;;;;;;;5.37;3.30;;;15.00;99.90;;;;;;5026715;28;20202;-61
2024/02/17 01:24:50;;;;;;;4.47;3.20;;;15.10;99.90;;;;;;5034629;28;20302;-61
2024/02/17 01:27:17;;;;;;;4.60;3.77;;;15.00;99.90;;;;;;5034399;28;20222;-61
2024/02/17 01:29:45;;;;;;;3.78;3.20;;;15.00;99.90;;;;;;5034411;28;20209;-62
2024/02/17 01:32:12;;;;;;;3.70;3.30;;;15.00;99.90;;;;;;5034343;28;20214;-60
2024/02/17 01:34:38;;;;;;;4.53;3.27;;;15.00;99.90;;;;;;5034502;28;20230;-60
2024/02/17 01:37:05;;;;;;;5.27;3.40;;;15.00;99.90;;;;;;5034500;28;20268;-61
2024/02/17 01:39:32;;;;;;;5.20;3.43;;;14.90;99.90;;;;;;5034371;28;20276;-60
2024/02/17 01:41:58;;;;;;;3.80;3.20;;;14.90;99.90;;;;;;5034345;28;20209;-61
2024/02/17 01:44:26;;;;;;;5.40;3.53;;;14.90;99.90;;;;;;5034122;28;20606;-60
2024/02/17 01:46:54;;;;;;;5.80;3.90;;;15.00;99.90;;;;;;5034162;28;20227;-60
2024/02/17 01:49:22;;;;;;;4.23;3.83;;;15.00;99.90;;;;;;5033847;28;20252;-61
2024/02/17 01:51:49;;;;;;;5.53;4.00;;;15.00;99.90;;;;;;5034065;28;20219;-61
2024/02/17 01:54:17;;;;;;;4.30;3.83;;;14.90;99.90;;;;;;5033892;28;20234;-62
2024/02/17 01:56:44;;;;;;;4.50;3.90;;;15.00;99.90;;;;;;5033973;28;20226;-61
2024/02/17 01:59:11;;;;;;;6.13;3.50;;;14.90;99.90;;;;;;5033667;28;20257;-60
2024/02/17 02:01:40;;;;;;;4.70;3.70;;;14.90;99.90;;;;;;5033581;28;20692;-60
2024/02/17 02:04:10;;;;;;;3.70;3.40;;;14.90;99.90;;;;;;5033695;28;20226;-61
2024/02/17 02:06:39;;;;;;;3.67;3.20;;;14.90;99.90;;;;;;5033876;28;20222;-61
2024/02/17 02:09:05;;;;;;;3.70;2.90;;;14.90;99.90;;;;;;5034188;28;20347;-60
2024/02/17 02:11:33;;;;;;;3.73;3.33;;;14.90;99.90;;;;;;5033665;28;20249;-61
2024/02/17 02:14:13;;;;;;;4.63;3.07;;;14.80;99.90;;;;;;5033445;28;20234;-61
2024/02/17 02:16:40;;;;;;;8.07;4.67;;;14.80;99.90;;;;;;5034095;28;20264;-60
2024/02/17 02:19:07;;;;;;;4.90;3.20;;;14.70;99.90;;;;;;5033738;28;20210;-61
2024/02/17 02:21:35;;;;;;;3.70;2.67;;;14.60;99.90;;;;;;5033611;28;20206;-61
2024/02/17 02:24:02;;;;;;;2.83;2.30;;;14.50;99.90;;;;;;5033264;28;20643;-61
2024/02/17 02:26:30;;;;;;;2.10;1.90;;;14.40;99.90;;;;;;5033593;28;20229;-61
2024/02/17 02:28:57;;;;;;;2.13;1.70;;;14.50;99.90;;;;;;5033542;28;20208;-61
2024/02/17 02:31:24;;;;;;;3.57;2.10;;;14.50;99.90;;;;;;5032903;28;20240;-61
2024/02/17 02:33:51;;;;;;;2.20;1.87;;;14.60;99.90;;;;;;5033256;28;20704;-61
2024/02/17 02:36:18;;;;;;;1.40;1.30;;;14.60;99.90;;;;;;5033273;28;20206;-61
2024/02/17 02:38:45;;;;;;;1.57;1.47;;;14.50;99.90;;;;;;5033413;28;20206;-62
2024/02/17 02:41:12;;;;;;;2.50;1.93;;;14.30;99.90;;;;;;5032958;28;20284;-61
2024/02/17 02:43:40;;;;;;;3.70;2.40;;;14.30;99.90;;;;;;5033209;28;20280;-61
2024/02/17 02:46:08;;;;;;;3.20;2.30;;;14.30;99.90;;;;;;5033249;28;20210;-61
2024/02/17 02:48:34;;;;;;;3.60;2.90;;;14.20;99.90;;;;;;5033003;28;20641;-61
2024/02/17 02:51:01;;;;;;;3.00;2.70;;;14.20;99.90;;;;;;5032693;28;20210;-61
2024/02/17 02:53:28;;;;;;;4.10;3.10;;;14.00;99.90;;;;;;5032640;28;20276;-61
2024/02/17 02:55:56;;;;;;;3.43;2.93;;;13.90;99.90;;;;;;5033257;28;20455;-61
2024/02/17 02:58:23;;;;;;;3.73;3.33;;;13.90;99.90;;;;;;5033168;28;20675;-60
2024/02/17 03:00:51;;;;;;;4.40;3.80;;;13.70;99.90;;;;;;5032754;28;20603;-60
2024/02/17 03:03:18;;;;;;;4.67;4.00;;;13.70;99.90;;;;;;5032450;28;20684;-61
2024/02/17 03:05:44;;;;;;;4.40;4.00;;;13.70;99.90;;;;;;5032764;28;20210;-61
2024/02/17 03:08:11;;;;;;;4.93;4.10;;;13.70;99.90;;;;;;5032582;28;20226;-63
2024/02/17 03:10:38;;;;;;;4.97;4.47;;;13.80;99.90;;;;;;5032672;28;20217;-60
2024/02/17 03:13:05;;;;;;;5.33;4.60;;;13.80;99.90;;;;;;5032412;28;20672;-61
2024/02/17 03:15:31;;;;;;;4.93;4.50;;;13.80;99.90;;;;;;5032814;28;20202;-61
2024/02/17 03:18:00;;;;;;;5.30;4.80;;;13.90;99.90;;;;;;5032555;28;20202;-61
2024/02/17 03:20:26;;;;;;;6.17;5.57;;;13.80;99.90;;;;;;5032801;28;20306;-61
2024/02/17 03:22:53;;;;;;;6.20;5.37;;;13.60;99.90;;;;;;5032342;28;20885;-61
2024/02/17 03:25:20;;;;;;;6.30;5.70;;;13.50;99.90;;;;;;5032434;28;20226;-61
2024/02/17 03:27:46;;;;;;;6.90;6.20;;;13.50;99.90;;;;;;5032434;28;20214;-61
2024/02/17 03:30:14;;;;;;;6.50;5.90;;;13.60;99.90;;;;;;5032013;28;20207;-61
2024/02/17 03:32:40;;;;;;;6.57;5.93;;;13.60;99.90;;;;;;5032267;28;20229;-61
2024/02/17 03:35:09;;;;;;;7.10;5.93;;;13.60;99.90;;;;;;5032096;28;20516;-61
2024/02/17 03:37:36;;;;;;;8.30;6.00;;;13.80;99.90;;;;;;5032478;28;20241;-61
2024/02/17 03:40:06;;;;;;;7.00;6.30;;;13.90;99.90;;;;;;5032198;28;20218;-61
2024/02/17 03:42:33;;;;;;;7.60;6.80;;;14.00;99.90;;;;;;5032154;28;20294;-61
2024/02/17 03:44:59;;;;;;;7.33;6.53;;;14.00;99.90;;;;;;5031980;28;20746;-62
2024/02/17 03:47:26;;;;;;;7.40;6.70;;;14.00;99.90;;;;;;5031837;28;20214;-62
2024/02/17 03:49:53;;;;;;;8.10;6.93;;;13.90;99.90;;;;;;5031775;28;20672;-61
2024/02/17 03:52:21;;;;;;;7.53;6.83;;;13.90;99.90;;;;;;5031838;28;20210;-61
2024/02/17 03:54:48;;;;;;;8.37;7.10;;;13.90;99.90;;;;;;5067533;22;20225;-59
2024/02/17 03:57:16;;;;;;;7.00;6.30;;;13.80;99.90;;;;;;5051944;28;20205;-59
2024/02/17 03:59:43;;;;;;;9.30;6.60;;;13.90;99.90;;;;;;5051580;28;20596;-59
2024/02/17 04:02:10;;;;;;;7.30;6.40;;;13.80;99.90;;;;;;5051939;28;20236;-59
2024/02/17 04:04:36;;;;;;;8.27;6.27;;;13.90;99.90;;;;;;5046991;28;20230;-59
2024/02/17 04:07:03;;;;;;;6.70;5.80;;;13.90;99.90;;;;;;5040395;28;20230;-59
2024/02/17 04:09:31;;;;;;;7.00;6.30;;;13.90;99.90;;;;;;5043733;28;20691;-59
2024/02/17 04:11:58;;;;;;;6.57;5.97;;;14.00;99.90;;;;;;5043849;28;20293;-60
2024/02/17 04:14:25;;;;;;;8.37;6.30;;;14.00;99.90;;;;;;5040644;28;20229;-58
2024/02/17 04:16:51;;;;;;;7.23;6.37;;;14.00;99.90;;;;;;5039988;28;20206;-59
2024/02/17 04:19:18;;;;;;;7.00;6.30;;;14.00;99.90;;;;;;5042210;28;20210;-59
2024/02/17 04:21:45;;;;;;;7.10;6.33;;;14.00;99.90;;;;;;5043421;28;20207;-59
2024/02/17 04:24:12;;;;;;;8.43;6.87;;;14.10;99.90;;;;;;5042506;28;20385;-59
2024/02/17 04:26:40;;;;;;;7.73;6.93;;;14.10;99.90;;;;;;5040237;28;20202;-58
2024/02/17 04:29:07;;;;;;;8.27;7.40;;;14.20;99.90;;;;;;5040493;28;20218;-59
2024/02/17 04:31:33;;;;;;;7.33;6.50;;;14.20;99.90;;;;;;5043239;28;20202;-59
2024/02/17 04:34:00;;;;;;;8.77;6.73;;;14.20;99.90;;;;;;5043942;28;20315;-60
2024/02/17 04:36:27;;;;;;;9.27;7.60;;;14.20;99.90;;;;;;5040235;28;20198;-58
2024/02/17 04:38:53;;;;;;;10.13;8.27;;;14.20;99.90;;;;;;5040137;28;20206;-62
2024/02/17 04:41:20;;;;;;;10.87;8.17;;;14.20;99.90;;;;;;5041962;28;20206;-60
2024/02/17 04:43:48;;;;;;;10.20;7.67;;;14.20;99.90;;;;;;5043359;28;20275;-59
2024/02/17 04:46:15;;;;;;;9.57;7.73;;;14.20;99.90;;;;;;5041522;28;20205;-58
2024/02/17 04:48:41;;;;;;;10.50;8.17;;;14.20;99.90;;;;;;5040110;28;20222;-59
2024/02/17 04:51:08;;;;;;;9.23;7.90;;;14.20;99.90;;;;;;5039993;28;20625;-60
2024/02/17 04:53:35;;;;;;;8.67;7.23;;;14.20;99.90;;;;;;5044673;28;20713;-61
2024/02/17 04:56:02;;;;;;;8.93;7.87;;;14.20;99.90;;;;;;5047057;28;20205;-59
2024/02/17 04:58:28;;;;;;;10.17;7.80;;;14.20;99.90;;;;;;5043680;28;20198;-60
2024/02/17 05:00:56;;;;;;;9.93;8.00;;;14.20;99.90;;;;;;5043563;28;20229;-59
2024/02/17 05:03:23;;;;;;;8.17;7.30;;;14.20;99.90;;;;;;5046321;28;20206;-60
2024/02/17 05:05:50;;;;;;;12.17;9.03;;;14.20;99.90;;;;;;5046960;28;20217;-59
2024/02/17 05:08:17;;;;;;;11.43;8.93;;;14.20;99.90;;;;;;5045114;28;20224;-60
2024/02/17 05:10:43;;;;;;;10.87;8.93;;;14.10;99.90;;;;;;5043180;28;20210;-58
2024/02/17 05:13:10;;;;;;;13.33;9.20;;;14.10;99.90;;;;;;5043794;28;20206;-61
2024/02/17 05:15:37;;;;;;;9.67;8.67;;;14.10;99.90;;;;;;5046741;28;20221;-59
2024/02/17 05:18:05;;;;;;;11.10;8.70;;;14.10;99.90;;;;;;5046483;28;20612;-58
2024/02/17 05:20:32;;;;;;;11.77;9.70;;;14.00;99.90;;;;;;5035127;28;20203;-59
2024/02/17 05:22:59;;;;;;;12.40;10.77;;;14.00;99.90;;;;;;5043014;28;20676;-59
2024/02/17 05:25:25;;;;;;;14.40;10.80;;;14.00;99.90;;;;;;5045729;28;20268;-59
2024/02/17 05:27:52;;;;;;;12.97;11.13;;;13.90;99.90;;;;;;5046314;28;20279;-59
2024/02/17 05:30:19;;;;;;;13.37;11.27;;;13.90;99.90;;;;;;5044200;28;20206;-59
2024/02/17 05:32:46;;;;;;;15.13;11.57;;;13.80;99.90;;;;;;5043022;28;20202;-59
2024/02/17 05:35:14;;;;;;;13.13;11.53;;;13.70;99.90;;;;;;5043741;28;20230;-59
2024/02/17 05:37:40;;;;;;;16.87;12.70;;;13.70;99.90;;;;;;5046233;28;20193;-58
2024/02/17 05:40:08;;;;;;;13.47;11.80;;;13.80;99.90;;;;;;5045691;28;20210;-59
2024/02/17 05:42:35;;;;;;;15.77;12.33;;;13.70;99.90;;;;;;5043085;28;20207;-59
2024/02/17 05:45:02;;;;;;;15.93;12.80;;;13.70;99.90;;;;;;5042975;28;20233;-59
2024/02/17 05:47:29;;;;;;;14.57;11.93;;;13.70;99.90;;;;;;5045876;28;20201;-59
2024/02/17 05:49:56;;;;;;;15.53;13.03;;;13.60;99.90;;;;;;5046046;28;20534;-58
2024/02/17 05:52:24;;;;;;;14.87;12.27;;;13.60;99.90;;;;;;5043521;28;20252;-58
2024/02/17 05:54:51;;;;;;;12.80;11.03;;;13.50;99.90;;;;;;5042415;28;20230;-59
2024/02/17 05:57:17;;;;;;;15.60;12.33;;;13.50;99.90;;;;;;5044168;28;20213;-58
2024/02/17 05:59:44;;;;;;;14.70;12.40;;;13.50;99.90;;;;;;5045905;28;20213;-59
2024/02/17 06:02:11;;;;;;;13.40;11.50;;;13.30;99.90;;;;;;5045487;28;20206;-58
2024/02/17 06:04:37;;;;;;;15.67;12.07;;;13.10;99.90;;;;;;5042304;28;20634;-58
2024/02/17 06:07:04;;;;;;;13.93;11.60;;;13.10;99.90;;;;;;5042414;28;20206;-58
2024/02/17 06:09:32;;;;;;;16.37;12.43;;;13.10;99.90;;;;;;5041975;28;20229;-59
2024/02/17 06:11:59;;;;;;;18.20;13.00;;;13.30;99.90;;;;;;5042272;28;20206;-59
2024/02/17 06:14:26;;;;;;;18.37;13.00;;;13.20;99.90;;;;;;5044987;28;20234;-59
2024/02/17 06:16:52;;;;;;;15.03;12.70;;;13.10;99.90;;;;;;5045540;28;20202;-57
2024/02/17 06:22:03;;;;;;;15.30;12.33;;;13.10;99.90;;;;;;5042100;28;20213;-58
2024/02/17 06:24:30;;;;;;;14.80;11.93;;;13.00;99.90;;;;;;5042071;28;20229;-59
2024/02/17 06:26:58;;;;;;;16.03;13.17;;;13.00;99.90;;;;;;5042163;28;20601;-58
2024/02/17 06:29:25;;;;;;;16.63;12.90;;;12.90;99.90;;;;;;5044088;28;20229;-59
2024/02/17 06:31:51;;;;;;;18.93;12.67;;;12.90;99.90;;;;;;5045323;28;20615;-58
2024/02/17 06:34:18;;;;;;;18.53;12.80;;;12.80;99.90;;;;;;5043505;28;20609;-59
2024/02/17 06:36:45;;;;;;;16.73;12.90;;;12.80;99.90;;;;;;5041999;28;20206;-60
2024/02/17 06:39:12;;;;;;;14.87;12.53;;;12.70;99.90;;;;;;5042322;28;20206;-57
2024/02/17 06:41:39;;;;;;;15.93;12.53;;;12.50;99.90;;;;;;5045031;28;20212;-59
2024/02/17 06:44:07;;;;;;;18.90;12.83;;;12.50;99.90;;;;;;5044941;28;20253;-58
2024/02/17 06:46:34;;;;;;;16.63;12.50;;;12.60;99.90;;;;;;5045054;28;20201;-59
2024/02/17 06:49:00;;;;;;;16.87;11.90;;;12.80;99.90;;;;;;5044624;28;20225;-58
2024/02/17 06:51:27;;;;;;;16.60;12.97;;;12.90;99.90;;;;;;5041701;28;20209;-58
2024/02/17 06:53:54;;;;;;;16.07;12.13;;;12.90;99.90;;;;;;5040980;28;20719;-58
2024/02/17 06:56:20;;;;;;;16.77;12.23;;;12.70;99.90;;;;;;5043021;28;20257;-58
2024/02/17 06:58:47;;;;;;;16.23;12.40;;;12.60;99.90;;;;;;5044669;28;20198;-58
2024/02/17 07:01:15;;;;;;;17.73;12.53;;;12.80;99.90;;;;;;5043342;28;20204;-58
2024/02/17 07:03:42;;;;;;;16.70;13.43;;;12.80;99.90;;;;;;5040832;28;20233;-58
2024/02/17 07:06:08;;;;;;;17.90;13.40;;;12.80;99.90;;;;;;5041113;28;20597;-59
2024/02/17 07:08:35;;;;;;;16.37;13.00;;;12.70;99.90;;;;;;5044376;28;20240;-59
2024/02/17 07:11:03;;;;;;;15.33;12.40;;;12.80;99.90;;;;;;5043943;28;20209;-59
2024/02/17 07:13:29;;;;;;;17.13;13.23;;;12.70;99.90;;;;;;5040809;28;20636;-59
2024/02/17 07:15:56;;;;;;;18.47;13.13;;;12.70;99.90;;;;;;5039885;28;20206;-61
2024/02/17 07:18:24;;;;;;;17.40;12.73;;;12.70;99.90;;;;;;5042863;28;20256;-59
2024/02/17 07:20:51;;;;;;;16.90;13.57;;;12.70;99.90;;;;;;5044135;28;20209;-59
2024/02/17 07:23:18;;;;;;;16.80;13.30;;;12.70;99.90;;;;;;5042688;28;20219;-59
2024/02/17 07:25:47;;;;;;;17.60;13.47;;;12.70;99.90;;;;;;5040538;28;20229;-59
2024/02/17 07:28:14;;;;;;;15.37;12.53;;;12.70;99.90;;;;;;5041241;28;20257;-59
2024/02/17 07:30:42;;;;;;;17.17;13.13;;;12.70;99.90;;;;;;5043824;28;20206;-59
2024/02/17 07:33:10;;;;;;;17.23;13.20;;;12.70;99.90;;;;;;5044181;28;20233;-59
2024/02/17 07:35:42;;;;;;;17.47;13.53;;;12.70;99.90;;;;;;5040491;28;20715;-60
2024/02/17 07:38:09;;;;;;;17.67;13.63;;;12.60;99.90;;;;;;5040466;28;20210;-59
2024/02/17 07:40:35;;;;;;;18.10;13.13;;;12.70;99.90;;;;;;5043663;28;20623;-60
2024/02/17 07:43:02;;;;;;;18.57;12.80;;;12.70;99.90;;;;;;5043725;28;20232;-60
2024/02/17 07:45:29;;;;;;;30.63;22.87;;;12.90;99.90;;;;;;5040686;28;20280;-60
2024/02/17 07:47:55;;;;;;;26.10;17.77;;;12.90;99.90;;;;;;5040185;28;20211;-60
2024/02/17 07:50:22;;;;;;;17.53;13.63;;;12.90;99.90;;;;;;5041833;28;20252;-60
2024/02/17 07:52:50;;;;;;;18.53;13.13;;;13.00;99.90;;;;;;5043490;28;20236;-59
2024/02/17 07:55:17;;;;;;;16.97;12.50;;;13.10;99.90;;;;;;5042070;28;20229;-60
2024/02/17 07:57:45;;;;;;;17.40;12.90;;;13.20;99.90;;;;;;5039899;28;20207;-60
2024/02/17 08:00:13;;;;;;;18.13;13.23;;;13.20;99.90;;;;;;5040135;28;20210;-60
2024/02/17 08:02:40;;;;;;;17.37;13.00;;;13.30;99.90;;;;;;5043587;28;20620;-58
2024/02/17 08:05:06;;;;;;;18.03;12.77;;;13.30;99.90;;;;;;5043414;28;20637;-59
2024/02/17 08:07:35;;;;;;;15.37;12.53;;;13.30;99.90;;;;;;5039873;28;20206;-59
2024/02/17 08:10:03;;;;;;;15.03;11.83;;;13.20;99.90;;;;;;5039544;28;20249;-58
2024/02/17 08:12:31;;;;;;;14.60;11.97;;;13.20;99.90;;;;;;5042582;28;20217;-59
2024/02/17 08:14:57;;;;;;;14.60;11.57;;;13.30;99.90;;;;;;5043403;28;20221;-59
2024/02/17 08:17:24;;;;;;;16.20;12.63;;;13.40;99.90;;;;;;5041362;28;20247;-61
2024/02/17 08:19:52;;;;;;;259.13;233.47;;;13.50;99.90;;;;;;5039560;28;20206;-59
2024/02/17 08:22:19;;;;;;;25.30;21.67;;;13.60;99.90;;;;;;5040967;28;20248;-59
2024/02/17 08:24:45;;;;;;;20.97;17.77;;;13.70;99.90;;;;;;5044914;28;20229;-59
2024/02/17 08:27:13;;;;;;;15.77;13.83;;;13.80;99.90;;;;;;5043092;28;20205;-59
2024/02/17 08:29:41;;;;;;;16.07;12.50;;;13.80;99.90;;;;;;5043689;28;20219;-59
2024/02/17 08:32:08;;;;;;;16.70;12.87;;;13.80;99.90;;;;;;5044297;28;20213;-60
2024/02/17 08:34:34;;;;;;;17.63;12.50;;;13.80;99.90;;;;;;5047887;28;20225;-59
2024/02/17 08:37:01;;;;;;;14.57;11.83;;;13.90;99.90;;;;;;5047440;28;20216;-59
2024/02/17 08:39:28;;;;;;;18.53;13.30;;;14.10;99.90;;;;;;5044650;28;20202;-58
2024/02/17 08:41:55;;;;;;;17.03;12.13;;;14.10;99.90;;;;;;5044143;28;20232;-59
2024/02/17 08:44:23;;;;;;;13.60;11.10;;;14.10;99.90;;;;;;5045328;28;20365;-57
2024/02/17 08:46:50;;;;;;;13.60;11.07;;;14.10;99.90;;;;;;5047545;28;20212;-58
2024/02/17 08:49:16;;;;;;;14.17;11.47;;;14.10;99.90;;;;;;5046311;28;20228;-58
2024/02/17 08:51:43;;;;;;;12.83;11.23;;;14.30;99.90;;;;;;5043295;28;20203;-58
2024/02/17 08:54:10;;;;;;;15.57;12.20;;;14.30;99.90;;;;;;5043108;28;20598;-57
2024/02/17 08:56:38;;;;;;;14.83;12.07;;;14.10;99.90;;;;;;5029956;28;20212;-59
2024/02/17 08:59:04;;;;;;;14.87;11.50;;;14.00;99.90;;;;;;5046867;28;20205;-61
2024/02/17 09:01:32;;;;;;;16.37;12.27;;;13.90;99.90;;;;;;5043608;28;20221;-66
2024/02/17 09:03:59;;;;;;;15.10;11.30;;;13.90;99.90;;;;;;5043356;28;20230;-65
2024/02/17 09:06:26;;;;;;;13.83;11.87;;;14.00;99.90;;;;;;5044909;28;20206;-65
2024/02/17 09:08:52;;;;;;;12.53;11.00;;;14.30;99.90;;;;;;5046719;28;20221;-65
2024/02/17 09:11:21;;;;;;;13.50;10.40;;;14.50;99.90;;;;;;5045042;28;20671;-62
2024/02/17 09:13:48;;;;;;;13.87;11.33;;;14.40;99.90;;;;;;5043222;28;20222;-69
2024/02/17 09:16:15;;;;;;;14.57;11.97;;;14.40;99.90;;;;;;5044243;28;20242;-67
2024/02/17 09:18:43;;;;;;;13.70;10.80;;;14.50;99.90;;;;;;5046362;28;20197;-63
2024/02/17 09:21:10;;;;;;;13.67;10.67;;;14.50;99.90;;;;;;5045546;28;20201;-62
2024/02/17 09:23:36;;;;;;;11.43;10.25;;;14.50;99.90;;;;;;5042552;28;20218;-64
2024/02/17 09:26:03;;;;;;;13.17;10.10;;;14.70;99.90;;;;;;5042762;28;20695;-63
2024/02/17 09:28:30;;;;;;;12.00;10.33;;;14.80;99.90;;;;;;5045096;28;20206;-62
2024/02/17 09:30:57;;;;;;;12.43;9.97;;;14.80;99.90;;;;;;5045894;28;20217;-61
2024/02/17 09:33:28;;;;;;;12.60;9.88;;;14.60;99.90;;;;;;5043937;28;20213;-60
2024/02/17 09:35:56;;;;;;;10.98;9.52;;;14.60;99.90;;;;;;5042759;28;20634;-63
2024/02/17 09:38:23;;;;;;;11.93;9.57;;;14.60;99.90;;;;;;5043559;28;20242;-61
2024/02/17 09:40:51;;;;;;;15.10;10.53;;;14.60;99.90;;;;;;5045704;28;20316;-63
2024/02/17 09:43:18;;;;;;;13.37;9.87;;;14.40;99.90;;;;;;5045228;28;20263;-60
2024/02/17 09:45:44;;;;;;;11.90;10.03;;;14.50;99.90;;;;;;5042054;28;20305;-63
2024/02/17 09:48:12;;;;;;;12.07;8.93;;;14.60;99.90;;;;;;5042454;28;20210;-64
2024/02/17 09:50:40;;;;;;;10.63;9.00;;;14.70;99.90;;;;;;5034034;28;20317;-62
2024/02/17 09:53:09;;;;;;;11.37;8.83;;;14.80;99.90;;;;;;5042259;28;20596;-64
2024/02/17 09:55:36;;;;;;;11.50;8.50;;;15.10;99.90;;;;;;5069017;22;20237;-61
2024/02/17 09:58:03;;;;;;;11.02;9.18;;;15.50;99.90;;;;;;5033435;28;20694;-61
2024/02/17 10:00:29;;;;;;;9.38;7.72;;;15.80;99.90;;;;;;5044186;28;20209;-61
2024/02/17 10:02:59;;;;;;;8.30;7.18;;;16.00;99.90;;;;;;5045334;28;20215;-60
2024/02/17 10:05:27;;;;;;;7.85;7.05;;;15.90;99.90;;;;;;5043447;28;20287;-65
2024/02/17 10:07:55;;;;;;;9.00;7.28;;;15.60;99.90;;;;;;5033602;28;20234;-62
2024/02/17 10:10:24;;;;;;;8.45;6.43;;;15.20;99.90;;;;;;5042631;28;20222;-59
2024/02/17 10:12:52;;;;;;;9.93;7.18;;;14.80;99.90;;;;;;5045276;28;20205;-62
2024/02/17 10:15:19;;;;;;;9.23;8.23;;;14.60;99.90;;;;;;5044289;28;20228;-59
2024/02/17 10:17:46;;;;;;;11.15;8.82;;;14.80;99.90;;;;;;5033716;28;20321;-59
2024/02/17 10:20:13;;;;;;;9.67;8.03;;;15.10;99.90;;;;;;5041859;28;20260;-59
2024/02/17 10:22:42;;;;;;;13.00;8.00;;;15.10;99.90;;;;;;5033642;28;20763;-61
2024/02/17 10:25:10;;;;;;;8.87;6.77;;;15.20;99.90;;;;;;5033325;28;20222;-59
2024/02/17 10:27:39;;;;;;;8.45;7.13;;;15.20;99.90;;;;;;5033139;28;20198;-58
2024/02/17 10:30:10;;;;;;;10.63;6.77;;;15.00;99.90;;;;;;5041554;28;20237;-59
2024/02/17 10:32:37;;;;;;;7.37;6.37;;;14.60;99.90;;;;;;5033122;28;20205;-59
2024/02/17 10:35:05;;;;;;;6.70;5.40;;;14.30;99.90;;;;;;5041645;28;20232;-59
2024/02/17 10:37:33;;;;;;;8.13;6.00;;;14.30;99.90;;;;;;5043734;28;20232;-59
2024/02/17 10:40:02;;;;;;;7.10;5.83;;;14.30;99.90;;;;;;5044461;28;20698;-58
2024/02/17 10:42:30;;;;;;;8.13;6.13;;;14.40;99.90;;;;;;5042721;28;20212;-58
2024/02/17 10:45:00;;;;;;;10.63;6.90;;;14.30;99.90;;;;;;5033147;28;20288;-58
2024/02/17 10:47:28;;;;;;;9.63;6.73;;;14.30;99.90;;;;;;5043020;28;20202;-58
2024/02/17 10:50:04;;;;;;;8.30;7.50;;;14.70;99.90;;;;;;5044120;28;20256;-58
2024/02/17 10:52:34;;;;;;;7.63;5.88;;;15.20;99.90;;;;;;5041723;28;20205;-58
2024/02/17 10:55:06;;;;;;;9.95;6.55;;;15.60;99.90;;;;;;5032673;28;20234;-58
2024/02/17 10:57:40;;;;;;;7.00;5.93;;;15.80;99.90;;;;;;5044048;28;20623;-62
2024/02/17 11:00:11;;;;;;;7.30;6.18;;;15.80;99.90;;;;;;5044298;28;20228;-62
2024/02/17 11:02:38;;;;;;;9.07;6.63;;;15.70;99.90;;;;;;5041255;28;20198;-62
2024/02/17 11:05:05;;;;;;;7.85;6.75;;;15.80;99.90;;;;;;5032550;28;20231;-62
2024/02/17 11:07:33;;;;;;;8.48;6.47;;;15.90;99.90;;;;;;5032356;28;20252;-62
2024/02/17 11:10:04;;;;;;;7.97;7.10;;;16.20;99.90;;;;;;5040547;28;20272;-59
2024/02/17 11:12:35;;;;;;;10.45;7.15;;;16.20;99.90;;;;;;5032516;28;20289;-56
2024/02/17 11:15:05;;;;;;;8.43;6.63;;;16.00;99.90;;;;;;5040627;28;20253;-60
2024/02/17 11:17:38;;;;;;;10.27;7.00;;;15.70;99.90;;;;;;5043165;28;20256;-60
2024/02/17 11:20:07;;;;;;;9.98;6.57;;;15.50;99.90;;;;;;5044239;28;20202;-60
2024/02/17 11:22:34;;;;;;;8.10;6.97;;;15.20;99.90;;;;;;5041498;28;20205;-59
2024/02/17 11:25:02;;;;;;;9.63;6.78;;;14.90;99.90;;;;;;5032536;28;20309;-59
2024/02/17 11:27:30;;;;;;;10.50;7.73;;;14.60;99.90;;;;;;5042426;28;20641;-59
2024/02/17 11:29:59;;;;;;;9.55;7.47;;;14.40;99.90;;;;;;5043617;28;20606;-59
2024/02/17 11:32:27;;;;;;;7.75;6.60;;;14.20;99.90;;;;;;5042201;28;20698;-59
2024/02/17 11:34:56;;;;;;;11.27;6.85;;;14.20;99.90;;;;;;5032214;28;20256;-60
2024/02/17 11:37:24;;;;;;;9.23;6.63;;;14.40;99.90;;;;;;5041583;28;20639;-59
2024/02/17 11:39:51;;;;;;;8.07;6.33;;;14.50;99.90;;;;;;5043366;28;20671;-60
2024/02/17 11:42:18;;;;;;;7.60;5.45;;;14.60;99.90;;;;;;5043231;28;20213;-58
2024/02/17 11:44:46;;;;;;;7.60;6.00;;;14.90;99.90;;;;;;5031758;28;20604;-59
2024/02/17 11:47:13;;;;;;;6.32;5.28;;;15.20;99.90;;;;;;5040162;28;20218;-59
2024/02/17 11:49:39;;;;;;;5.65;4.72;;;15.50;99.90;;;;;;5031581;28;20222;-59
2024/02/17 11:52:09;;;;;;;7.82;5.55;;;15.50;99.90;;;;;;5040241;28;20206;-60
2024/02/17 11:54:36;;;;;;;7.18;5.10;;;15.50;99.90;;;;;;5031762;28;20230;-60
2024/02/17 11:57:03;;;;;;;6.75;5.30;;;15.60;99.90;;;;;;5040046;28;20561;-61
2024/02/17 11:59:30;;;;;;;9.47;5.63;;;15.70;99.90;;;;;;5041514;28;20285;-60
2024/02/17 12:01:58;;;;;;;7.72;4.28;;;15.90;99.90;;;;;;5043547;28;20583;-60
2024/02/17 12:04:25;;;;;;;6.38;4.45;;;16.00;99.90;;;;;;5042025;28;20653;-60
2024/02/17 12:06:52;;;;;;;8.07;5.00;;;16.10;99.90;;;;;;5031837;28;20210;-60
2024/02/17 12:09:20;;;;;;;7.47;4.60;;;16.10;99.90;;;;;;5040252;28;20274;-59
2024/02/17 12:11:47;;;;;;;6.50;5.20;;;16.10;99.90;;;;;;5043196;28;20205;-59
2024/02/17 12:14:16;;;;;;;7.25;5.50;;;16.20;99.90;;;;;;5043322;28;20264;-60
2024/02/17 12:16:43;;;;;;;7.07;5.43;;;16.40;99.90;;;;;;5031902;28;20689;-59
2024/02/17 12:19:10;;;;;;;8.70;7.00;;;16.60;99.90;;;;;;5031859;28;20218;-59
2024/02/17 12:21:38;;;;;;;11.35;6.43;;;16.60;99.90;;;;;;5042361;28;20292;-59
2024/02/17 12:24:06;;;;;;;7.32;5.93;;;16.70;99.90;;;;;;5043237;28;20585;-60
2024/02/17 12:26:35;;;;;;;8.18;6.78;;;16.70;99.90;;;;;;5040942;28;20215;-59
2024/02/17 12:29:03;;;;;;;8.23;5.65;;;16.70;99.90;;;;;;5032052;28;20202;-60
2024/02/17 12:31:31;;;;;;;4.63;4.10;;;16.90;99.90;;;;;;5041137;28;20222;-58
2024/02/17 12:33:58;;;;;;;5.50;3.88;;;16.90;99.90;;;;;;5043329;28;20234;-57
2024/02/17 12:36:25;;;;;;;5.35;4.20;;;16.70;99.90;;;;;;5042090;28;20275;-59
2024/02/17 12:38:58;;;;;;;5.40;4.20;;;16.60;99.90;;;;;;5031431;28;20628;-60
2024/02/17 12:41:25;;;;;;;5.22;4.65;;;16.50;99.90;;;;;;5040658;28;20228;-57